Terminal Aerodrome Forecast
Issued by NWS Cleveland, OH

Home | Current Version | Previous Version | Text Only | Print | Product List | Glossary Off
Versions: 1 2 3 4 5 6 7 8 9 10 11 12 13 14 15

128
FTUS41 KCLE 171551 AAB
TAFTOL
TAF AMD
KTOL 171551Z 1716/1812 24006KT P6SM SCT005 BKN045
      TEMPO 1716/1718 5SM BR
     FM171800 24012KT P6SM SCT040 BKN100=

USA.gov is the U.S. government's official web portal to all federal, state and local government web resources and services.